createdAt,value
2023-03-27T00:01:36.245Z,9.38
2023-03-27T00:04:05.103Z,9.57
2023-03-27T00:06:32.728Z,9.92
2023-03-27T00:09:00.540Z,10.12
2023-03-27T00:11:32.622Z,10.36
2023-03-27T00:14:01.981Z,10.34
2023-03-27T00:16:29.718Z,10.33
2023-03-27T00:18:57.451Z,10.29
2023-03-27T00:21:25.135Z,9.86
2023-03-27T00:23:52.835Z,9.97
2023-03-27T00:26:20.927Z,10.35
2023-03-27T00:28:50.703Z,10.22
2023-03-27T00:31:18.418Z,10.38
2023-03-27T00:33:46.035Z,10.26
2023-03-27T00:36:13.720Z,10.17
2023-03-27T00:38:42.432Z,10.29
2023-03-27T00:41:11.469Z,9.99
2023-03-27T00:43:42.650Z,9.69
2023-03-27T00:46:28.007Z,9.78
2023-03-27T00:48:56.484Z,9.58
2023-03-27T00:51:26.977Z,9.32
2023-03-27T00:53:55.966Z,9.20
2023-03-27T00:56:25.653Z,9.39
2023-03-27T00:58:58.354Z,9.24
2023-03-27T01:01:30.789Z,9.19
2023-03-27T01:04:04.995Z,9.27
2023-03-27T01:06:32.880Z,9.17
2023-03-27T01:09:00.707Z,9.32
2023-03-27T01:11:44.856Z,9.03
2023-03-27T01:14:21.000Z,8.81
2023-03-27T01:17:07.526Z,9.11
2023-03-27T01:20:01.030Z,9.05
2023-03-27T01:23:05.666Z,9.44
2023-03-27T01:26:06.449Z,9.30
2023-03-27T01:28:46.219Z,9.21
2023-03-27T01:31:30.691Z,9.19
2023-03-27T01:34:25.956Z,9.20
2023-03-27T01:37:20.941Z,9.27
2023-03-27T01:40:00.170Z,9.14
2023-03-27T01:42:36.547Z,9.14
2023-03-27T01:45:11.015Z,9.09
2023-03-27T01:47:52.219Z,8.91
2023-03-27T01:50:25.560Z,8.79
2023-03-27T01:52:59.534Z,8.65
2023-03-27T01:55:33.959Z,8.48
2023-03-27T01:58:08.111Z,8.44
2023-03-27T02:00:51.936Z,8.56
2023-03-27T02:03:28.129Z,8.58
2023-03-27T02:06:01.437Z,8.62
2023-03-27T02:08:36.483Z,8.48
2023-03-27T02:11:06.250Z,8.31
2023-03-27T02:13:40.577Z,8.23
2023-03-27T02:16:15.070Z,8.25
2023-03-27T02:18:51.390Z,8.41
2023-03-27T02:21:19.043Z,8.21
2023-03-27T02:23:46.667Z,8.16
2023-03-27T02:26:15.904Z,8.33
2023-03-27T02:29:06.438Z,8.56
2023-03-27T02:31:49.208Z,8.51
2023-03-27T02:34:46.517Z,8.40
2023-03-27T02:37:32.174Z,8.67
2023-03-27T02:40:11.453Z,8.23
2023-03-27T02:42:53.564Z,8.27
2023-03-27T02:45:30.515Z,8.22
2023-03-27T02:48:07.184Z,8.04
2023-03-27T02:50:43.937Z,8.08
2023-03-27T02:53:15.929Z,8.32
2023-03-27T02:55:52.344Z,8.46
2023-03-27T02:58:30.234Z,8.47
2023-03-27T03:01:00.846Z,8.54
2023-03-27T03:03:36.112Z,8.61
2023-03-27T03:06:05.679Z,8.27
2023-03-27T03:08:34.054Z,8.29
2023-03-27T03:11:03.326Z,8.42
2023-03-27T03:13:32.684Z,8.20
2023-03-27T03:16:00.347Z,8.13
2023-03-27T03:18:28.104Z,8.05
2023-03-27T03:20:56.436Z,8.01
2023-03-27T03:23:24.256Z,8.05
2023-03-27T03:25:52.258Z,8.24
2023-03-27T03:28:19.962Z,8.30
2023-03-27T03:30:49.658Z,8.21
2023-03-27T03:33:19.199Z,8.13
2023-03-27T03:35:48.829Z,8.33
2023-03-27T03:38:17.853Z,8.24
2023-03-27T03:40:45.444Z,8.19
2023-03-27T03:43:13.648Z,8.22
2023-03-27T03:45:41.229Z,8.52
2023-03-27T03:48:10.203Z,8.37
2023-03-27T03:50:37.823Z,8.54
2023-03-27T03:53:05.338Z,8.64
2023-03-27T03:55:33.026Z,8.53
2023-03-27T03:58:00.668Z,8.76
2023-03-27T04:00:28.207Z,8.66
2023-03-27T04:02:56.001Z,8.46
2023-03-27T04:05:25.077Z,8.68
2023-03-27T04:07:52.768Z,8.87
2023-03-27T04:10:20.416Z,8.80
2023-03-27T04:12:48.133Z,8.59
2023-03-27T04:15:15.813Z,8.34
2023-03-27T04:17:44.555Z,8.22
2023-03-27T04:20:12.909Z,8.14
2023-03-27T04:22:44.479Z,8.19
2023-03-27T04:25:13.956Z,8.38
2023-03-27T04:27:41.799Z,8.47
2023-03-27T04:30:13.117Z,8.34
2023-03-27T04:32:41.482Z,8.21
2023-03-27T04:35:09.887Z,7.98
2023-03-27T04:37:40.308Z,7.99
2023-03-27T04:40:12.730Z,8.07
2023-03-27T04:42:41.611Z,8.01
2023-03-27T04:45:11.659Z,7.90
2023-03-27T04:47:39.416Z,7.86
2023-03-27T04:50:10.121Z,7.85
2023-03-27T04:52:37.745Z,7.88
2023-03-27T04:55:06.419Z,7.96
2023-03-27T04:57:35.783Z,7.99
2023-03-27T05:00:05.958Z,8.02
2023-03-27T05:02:33.625Z,7.99
2023-03-27T05:05:01.240Z,7.91
2023-03-27T05:07:28.843Z,7.96
2023-03-27T05:09:56.497Z,7.78
2023-03-27T05:12:24.176Z,7.85
2023-03-27T05:14:53.243Z,8.20
2023-03-27T05:17:20.926Z,8.35
2023-03-27T05:19:48.505Z,8.65
2023-03-27T05:22:16.497Z,8.94
2023-03-27T05:24:44.247Z,8.98
2023-03-27T05:27:12.104Z,8.89
2023-03-27T05:29:46.977Z,8.98
2023-03-27T05:32:16.945Z,9.00
2023-03-27T05:34:44.502Z,9.12
2023-03-27T05:37:12.096Z,9.16
2023-03-27T05:39:39.871Z,9.21
2023-03-27T05:42:07.461Z,9.27
2023-03-27T05:44:35.042Z,9.32
2023-03-27T05:47:03.379Z,9.01
2023-03-27T05:49:34.064Z,8.66
2023-03-27T05:52:02.041Z,8.84
2023-03-27T05:54:34.323Z,8.48
2023-03-27T05:57:02.019Z,8.56
2023-03-27T05:59:29.655Z,8.00
2023-03-27T06:01:57.183Z,8.09
2023-03-27T06:04:24.764Z,7.98
2023-03-27T06:06:53.812Z,8.03
2023-03-27T06:09:21.446Z,8.08
2023-03-27T06:11:48.957Z,8.39
2023-03-27T06:14:16.548Z,8.41
2023-03-27T06:16:45.589Z,8.60
2023-03-27T06:19:13.197Z,8.48
2023-03-27T06:21:41.494Z,8.63
2023-03-27T06:24:10.474Z,8.64
2023-03-27T06:26:38.088Z,8.51
2023-03-27T06:29:07.841Z,8.40
2023-03-27T06:31:35.965Z,8.16
2023-03-27T06:34:03.803Z,7.94
2023-03-27T06:36:31.600Z,8.19
2023-03-27T06:38:59.382Z,8.57
2023-03-27T06:41:28.316Z,8.43
2023-03-27T06:43:56.010Z,8.46
2023-03-27T06:46:27.586Z,8.35
2023-03-27T06:48:59.958Z,8.36
2023-03-27T06:51:27.611Z,8.42
2023-03-27T06:53:55.162Z,8.96
2023-03-27T06:56:22.810Z,8.91
2023-03-27T06:58:51.804Z,8.68
2023-03-27T07:01:19.598Z,9.02
2023-03-27T07:03:47.502Z,8.90
2023-03-27T07:06:15.386Z,8.45
2023-03-27T07:08:43.413Z,8.92
2023-03-27T07:11:12.692Z,9.23
2023-03-27T07:13:40.519Z,9.41
2023-03-27T07:16:10.480Z,9.21
2023-03-27T07:18:38.241Z,9.66
2023-03-27T07:21:06.549Z,9.38
2023-03-27T07:23:34.263Z,9.47
2023-03-27T07:26:01.924Z,9.84
2023-03-27T07:28:29.561Z,9.42
2023-03-27T07:30:57.338Z,9.63
2023-03-27T07:33:26.564Z,9.06
2023-03-27T07:35:56.992Z,8.50
2023-03-27T07:38:24.753Z,8.83
2023-03-27T07:40:52.299Z,8.80
2023-03-27T07:43:19.819Z,8.59
2023-03-27T07:45:47.453Z,8.71
2023-03-27T07:48:15.170Z,8.77
2023-03-27T07:50:44.861Z,8.31
2023-03-27T07:53:33.527Z,8.24
2023-03-27T07:56:00.145Z,8.29
2023-03-27T07:58:27.968Z,8.41
2023-03-27T08:00:59.307Z,8.27
2023-03-27T08:03:27.147Z,8.32
2023-03-27T08:05:58.710Z,7.89
2023-03-27T08:08:27.464Z,7.48
2023-03-27T08:10:55.765Z,8.08
2023-03-27T08:13:23.975Z,8.17
2023-03-27T08:15:52.352Z,8.18
2023-03-27T08:18:20.027Z,7.48
2023-03-27T08:20:47.725Z,8.29
2023-03-27T08:23:16.674Z,8.35
2023-03-27T08:25:48.850Z,10.05
2023-03-27T08:28:16.486Z,9.87
2023-03-27T08:30:44.159Z,10.09
2023-03-27T08:33:11.899Z,9.31
2023-03-27T08:35:39.571Z,9.96
2023-03-27T08:38:11.290Z,11.53
2023-03-27T08:40:52.677Z,12.77
2023-03-27T08:43:23.878Z,12.61
2023-03-27T08:45:57.792Z,12.84
2023-03-27T08:48:33.984Z,13.51
2023-03-27T08:51:05.701Z,13.18
2023-03-27T08:53:41.638Z,9.90
2023-03-27T08:56:14.112Z,9.44
2023-03-27T08:58:43.363Z,9.80
2023-03-27T09:01:20.926Z,10.00
2023-03-27T09:03:59.109Z,9.14
2023-03-27T09:06:32.178Z,9.86
2023-03-27T09:09:09.289Z,8.83
2023-03-27T09:11:54.677Z,9.62
2023-03-27T09:14:31.074Z,11.10
2023-03-27T09:17:06.958Z,11.95
2023-03-27T09:19:45.283Z,13.11
2023-03-27T09:22:18.770Z,12.53
2023-03-27T09:24:50.650Z,13.99
2023-03-27T09:27:24.362Z,12.37
2023-03-27T09:30:05.053Z,11.49
2023-03-27T09:32:34.085Z,10.99
2023-03-27T09:35:02.010Z,11.01
2023-03-27T09:37:29.821Z,10.37
2023-03-27T09:40:00.281Z,9.53
2023-03-27T09:42:37.031Z,9.94
2023-03-27T09:45:09.392Z,9.61
2023-03-27T09:47:44.227Z,9.53
2023-03-27T09:50:28.310Z,9.19
2023-03-27T09:53:08.510Z,9.09
2023-03-27T09:55:48.281Z,8.91
2023-03-27T09:58:29.094Z,8.56
2023-03-27T10:01:08.603Z,8.57
2023-03-27T10:03:40.943Z,8.85
2023-03-27T10:06:13.910Z,8.84
2023-03-27T10:08:47.223Z,9.22
2023-03-27T10:11:18.052Z,9.16
2023-03-27T10:13:49.775Z,9.37
2023-03-27T10:16:23.460Z,9.41
2023-03-27T10:18:55.554Z,9.58
2023-03-27T10:21:31.285Z,9.35
2023-03-27T10:24:02.788Z,9.12
2023-03-27T10:26:33.212Z,8.95
2023-03-27T10:29:20.000Z,8.81
2023-03-27T10:31:50.888Z,9.03
2023-03-27T10:34:39.162Z,9.10
2023-03-27T10:37:21.072Z,9.20
2023-03-27T10:39:49.267Z,9.36
2023-03-27T10:42:18.218Z,10.53
2023-03-27T10:44:50.056Z,12.13
2023-03-27T10:47:24.424Z,12.24
2023-03-27T10:50:03.647Z,12.51
2023-03-27T10:52:40.246Z,12.01
2023-03-27T10:55:28.793Z,11.63
2023-03-27T10:58:03.170Z,11.82
2023-03-27T11:00:40.021Z,12.25
2023-03-27T11:03:16.322Z,13.35
2023-03-27T11:05:46.889Z,13.05
2023-03-27T11:08:21.832Z,13.51
2023-03-27T11:10:50.357Z,13.71
2023-03-27T11:13:25.805Z,13.39
2023-03-27T11:16:09.312Z,11.25
2023-03-27T11:18:43.135Z,10.66
2023-03-27T11:21:19.107Z,10.24
2023-03-27T11:23:54.240Z,9.86
2023-03-27T11:26:28.084Z,9.38
2023-03-27T11:29:03.334Z,8.95
2023-03-27T11:31:40.842Z,9.01
2023-03-27T11:34:28.896Z,9.84
2023-03-27T11:37:03.822Z,9.43
2023-03-27T11:39:38.622Z,9.18
2023-03-27T11:42:16.282Z,8.50
2023-03-27T11:44:44.886Z,8.41
2023-03-27T11:47:44.035Z,8.38
2023-03-27T11:50:32.360Z,8.37
2023-03-27T11:53:17.644Z,8.94
2023-03-27T11:56:02.567Z,8.98
2023-03-27T11:58:35.083Z,9.51
2023-03-27T12:01:16.623Z,8.85
2023-03-27T12:04:14.566Z,8.59
2023-03-27T12:06:54.408Z,8.05
2023-03-27T12:09:43.879Z,8.50
2023-03-27T12:12:28.989Z,8.96
2023-03-27T12:15:17.117Z,8.54
2023-03-27T12:17:57.478Z,8.78
2023-03-27T12:20:53.396Z,8.71
2023-03-27T12:23:43.141Z,8.46
2023-03-27T12:26:30.297Z,8.66
2023-03-27T12:29:23.858Z,8.76
2023-03-27T12:32:13.965Z,8.70
2023-03-27T12:34:51.676Z,8.93
2023-03-27T12:37:26.289Z,8.61
2023-03-27T12:39:57.624Z,9.13
2023-03-27T12:42:50.297Z,9.29
2023-03-27T12:45:19.719Z,8.75
2023-03-27T12:48:20.186Z,8.55
2023-03-27T12:50:58.698Z,9.05
2023-03-27T12:53:50.022Z,9.07
2023-03-27T12:56:35.828Z,9.21
2023-03-27T12:59:18.878Z,8.48
2023-03-27T13:02:27.783Z,8.10
2023-03-27T13:05:29.688Z,8.68
2023-03-27T13:08:15.239Z,8.37
2023-03-27T13:10:57.711Z,8.81
2023-03-27T13:14:13.872Z,7.81
2023-03-27T13:17:02.498Z,8.42
2023-03-27T13:19:47.334Z,8.59
2023-03-27T13:22:27.606Z,8.45
2023-03-27T13:25:14.837Z,8.72
2023-03-27T13:28:07.048Z,8.01
2023-03-27T13:30:52.313Z,8.21
2023-03-27T13:33:25.499Z,8.49
2023-03-27T13:36:07.128Z,8.32
2023-03-27T13:38:49.613Z,8.95
2023-03-27T13:41:56.279Z,8.91
2023-03-27T13:44:32.529Z,8.26
2023-03-27T13:47:21.921Z,9.07
2023-03-27T13:50:14.342Z,8.58
2023-03-27T13:53:12.490Z,9.02
2023-03-27T13:56:14.612Z,8.92
2023-03-27T13:59:18.592Z,9.20
2023-03-27T14:02:02.389Z,8.29
2023-03-27T14:05:13.539Z,8.84
2023-03-27T14:08:14.914Z,8.67
2023-03-27T14:11:07.739Z,8.75
2023-03-27T14:14:00.547Z,8.88
2023-03-27T14:17:01.455Z,8.50
2023-03-27T14:20:02.242Z,8.06
2023-03-27T14:22:38.686Z,8.58
2023-03-27T14:25:14.212Z,8.37
2023-03-27T14:27:45.566Z,8.79
2023-03-27T14:30:18.240Z,8.76
2023-03-27T14:32:47.812Z,8.82
2023-03-27T14:35:33.997Z,8.75
2023-03-27T14:38:04.387Z,9.10
2023-03-27T14:40:34.694Z,9.06
2023-03-27T14:43:06.079Z,8.83
2023-03-27T14:45:38.569Z,9.00
2023-03-27T14:48:22.640Z,8.86
2023-03-27T14:50:54.850Z,8.92
2023-03-27T14:53:28.153Z,8.37
2023-03-27T14:55:59.113Z,8.47
2023-03-27T14:58:27.855Z,8.91
2023-03-27T15:01:01.174Z,8.68
2023-03-27T15:03:31.139Z,8.89
2023-03-27T15:06:02.546Z,9.26
2023-03-27T15:08:35.032Z,8.92
2023-03-27T15:11:09.030Z,9.80
2023-03-27T15:13:37.038Z,10.81
2023-03-27T15:16:07.921Z,11.11
2023-03-27T15:18:45.406Z,10.88
2023-03-27T15:21:19.026Z,10.11
2023-03-27T15:23:57.802Z,10.20
2023-03-27T15:26:29.079Z,10.01
2023-03-27T15:29:05.232Z,9.99
2023-03-27T15:31:36.373Z,9.92
2023-03-27T15:34:14.219Z,9.85
2023-03-27T15:36:43.095Z,9.84
2023-03-27T15:39:22.267Z,10.04
2023-03-27T15:41:52.081Z,10.22
2023-03-27T15:44:22.654Z,10.12
2023-03-27T15:46:53.894Z,9.80
2023-03-27T15:49:27.797Z,9.55
2023-03-27T15:51:57.158Z,9.79
2023-03-27T15:54:31.347Z,9.31
2023-03-27T15:57:09.758Z,9.13
2023-03-27T15:59:52.068Z,9.27
2023-03-27T16:02:24.835Z,9.45
2023-03-27T16:04:56.938Z,9.23
2023-03-27T16:07:29.027Z,9.08
2023-03-27T16:09:59.202Z,8.89
2023-03-27T16:12:31.685Z,8.56
2023-03-27T16:15:00.908Z,8.45
2023-03-27T16:17:32.933Z,7.83
2023-03-27T16:20:31.070Z,8.24
2023-03-27T16:22:59.584Z,8.49
2023-03-27T16:25:27.226Z,8.85
2023-03-27T16:27:55.314Z,9.18
2023-03-27T16:30:28.718Z,9.34
2023-03-27T16:32:56.498Z,9.52
2023-03-27T16:35:26.218Z,9.09
2023-03-27T16:37:54.621Z,8.96
2023-03-27T16:40:22.239Z,9.36
2023-03-27T16:42:49.898Z,8.97
2023-03-27T16:45:17.906Z,8.93
2023-03-27T16:47:45.665Z,8.94
2023-03-27T16:50:20.128Z,8.93
2023-03-27T16:52:49.221Z,8.59
2023-03-27T16:55:17.276Z,8.45
2023-03-27T16:57:44.948Z,8.44
2023-03-27T17:00:15.273Z,8.84
2023-03-27T17:02:43.215Z,8.62
2023-03-27T17:05:11.093Z,8.63
2023-03-27T17:07:39.282Z,8.76
2023-03-27T17:10:09.641Z,8.65
2023-03-27T17:12:37.347Z,8.86
2023-03-27T17:15:05.867Z,8.70
2023-03-27T17:17:33.482Z,8.77
2023-03-27T17:20:01.111Z,8.88
2023-03-27T17:22:28.773Z,9.20
2023-03-27T17:24:57.529Z,9.51
2023-03-27T17:27:26.990Z,9.13
2023-03-27T17:29:54.902Z,8.85
2023-03-27T17:32:22.946Z,8.81
2023-03-27T17:34:50.633Z,8.52
2023-03-27T17:37:18.763Z,8.69
2023-03-27T17:39:46.632Z,8.32
2023-03-27T17:42:14.299Z,8.52
2023-03-27T17:44:43.369Z,8.36
2023-03-27T17:47:10.973Z,8.51
2023-03-27T17:49:38.598Z,8.40
2023-03-27T17:52:06.448Z,8.46
2023-03-27T17:54:35.632Z,8.02
2023-03-27T17:57:04.330Z,8.01
2023-03-27T17:59:32.099Z,8.35
2023-03-27T18:02:01.183Z,8.36
2023-03-27T18:04:29.609Z,8.06
2023-03-27T18:06:57.540Z,8.42
2023-03-27T18:09:25.538Z,8.61
2023-03-27T18:11:53.396Z,8.79
2023-03-27T18:14:21.161Z,9.07
2023-03-27T18:16:48.762Z,9.02
2023-03-27T18:19:20.242Z,9.11
2023-03-27T18:21:47.960Z,9.02
2023-03-27T18:24:15.530Z,8.72
2023-03-27T18:26:43.088Z,9.06
2023-03-27T18:29:10.780Z,9.00
2023-03-27T18:31:38.465Z,8.84
2023-03-27T18:34:06.591Z,8.97
2023-03-27T18:36:35.564Z,8.98
2023-03-27T18:39:03.563Z,8.79
2023-03-27T18:41:31.053Z,9.13
2023-03-27T18:43:59.077Z,8.99
2023-03-27T18:46:26.972Z,9.05
2023-03-27T18:48:54.689Z,9.44
2023-03-27T18:51:22.383Z,8.78
2023-03-27T18:53:51.471Z,9.12
2023-03-27T18:56:19.165Z,8.70
2023-03-27T18:58:46.813Z,8.34
2023-03-27T19:01:14.639Z,8.49
2023-03-27T19:03:42.836Z,8.31
2023-03-27T19:06:12.249Z,8.30
2023-03-27T19:08:40.410Z,8.26
2023-03-27T19:11:10.229Z,8.12
2023-03-27T19:13:37.939Z,8.51
2023-03-27T19:16:14.521Z,8.81
2023-03-27T19:18:42.944Z,8.16
2023-03-27T19:21:10.628Z,8.76
2023-03-27T19:23:38.307Z,8.42
2023-03-27T19:26:07.368Z,8.71
2023-03-27T19:28:36.884Z,8.92
2023-03-27T19:31:05.638Z,8.31
2023-03-27T19:33:33.333Z,8.54
2023-03-27T19:36:01.046Z,8.66
2023-03-27T19:38:28.938Z,8.81
2023-03-27T19:40:58.533Z,9.01
2023-03-27T19:43:26.328Z,8.97
2023-03-27T19:46:14.170Z,9.06
2023-03-27T19:48:42.792Z,8.92
2023-03-27T19:51:10.505Z,9.14
2023-03-27T19:53:38.112Z,8.55
2023-03-27T19:56:05.787Z,8.47
2023-03-27T19:58:33.427Z,8.46
2023-03-27T20:01:02.387Z,8.69
2023-03-27T20:03:30.553Z,8.13
2023-03-27T20:06:07.089Z,8.39
2023-03-27T20:08:36.209Z,8.29
2023-03-27T20:11:04.001Z,8.30
2023-03-27T20:13:35.409Z,8.56
2023-03-27T20:16:08.767Z,8.69
2023-03-27T20:18:36.575Z,8.55
2023-03-27T20:21:04.590Z,9.04
2023-03-27T20:23:32.208Z,8.86
2023-03-27T20:26:00.056Z,8.71
2023-03-27T20:28:27.867Z,8.71
2023-03-27T20:30:55.513Z,8.23
2023-03-27T20:33:24.556Z,8.54
2023-03-27T20:35:52.232Z,8.94
2023-03-27T20:38:19.827Z,8.70
2023-03-27T20:40:52.938Z,8.48
2023-03-27T20:43:21.187Z,8.26
2023-03-27T20:45:50.862Z,8.40
2023-03-27T20:48:19.044Z,8.51
2023-03-27T20:50:51.140Z,8.36
2023-03-27T20:53:20.942Z,8.46
2023-03-27T20:55:59.384Z,8.55
2023-03-27T20:58:29.113Z,8.40
2023-03-27T21:00:58.976Z,8.65
2023-03-27T21:03:26.515Z,8.26
2023-03-27T21:05:55.630Z,8.13
2023-03-27T21:08:23.385Z,8.39
2023-03-27T21:10:53.347Z,8.54
2023-03-27T21:13:20.987Z,8.65
2023-03-27T21:15:48.731Z,8.36
2023-03-27T21:18:16.373Z,8.05
2023-03-27T21:20:44.739Z,7.65
2023-03-27T21:23:13.679Z,7.62
2023-03-27T21:25:41.313Z,7.79
2023-03-27T21:28:08.973Z,7.88
2023-03-27T21:30:47.202Z,7.89
2023-03-27T21:33:16.563Z,7.39
2023-03-27T21:35:46.121Z,7.50
2023-03-27T21:38:17.497Z,7.60
2023-03-27T21:40:45.842Z,7.83
2023-03-27T21:43:13.923Z,7.17
2023-03-27T21:45:41.593Z,6.25
2023-03-27T21:48:09.279Z,6.22
2023-03-27T21:50:36.899Z,5.90
2023-03-27T21:53:04.596Z,5.88
2023-03-27T21:55:33.557Z,5.73
2023-03-27T21:58:01.219Z,5.69
2023-03-27T22:00:31.146Z,6.23
2023-03-27T22:02:58.922Z,5.87
2023-03-27T22:05:26.557Z,5.91
2023-03-27T22:07:54.220Z,5.60
2023-03-27T22:10:21.859Z,5.59
2023-03-27T22:12:50.832Z,5.41
2023-03-27T22:15:18.609Z,5.49
2023-03-27T22:17:46.506Z,5.41
2023-03-27T22:20:14.735Z,5.44
2023-03-27T22:22:42.376Z,5.43
2023-03-27T22:25:10.037Z,5.48
2023-03-27T22:27:37.647Z,5.36
2023-03-27T22:30:08.302Z,5.40
2023-03-27T22:32:35.970Z,5.35
2023-03-27T22:35:03.798Z,5.35
2023-03-27T22:37:31.421Z,5.37
2023-03-27T22:39:59.109Z,5.29
2023-03-27T22:42:29.176Z,5.28
2023-03-27T22:44:56.829Z,5.31
2023-03-27T22:47:26.058Z,5.48
2023-03-27T22:49:53.737Z,5.06
2023-03-27T22:52:21.364Z,4.89
2023-03-27T22:54:48.995Z,4.94
2023-03-27T22:57:16.671Z,4.97
2023-03-27T22:59:44.288Z,5.12
2023-03-27T23:02:12.033Z,5.00
2023-03-27T23:04:41.069Z,4.91
2023-03-27T23:07:08.775Z,4.99
2023-03-27T23:09:36.580Z,5.00
2023-03-27T23:12:04.703Z,5.00
2023-03-27T23:14:32.528Z,5.06
2023-03-27T23:17:00.231Z,5.07
2023-03-27T23:19:27.846Z,5.07
2023-03-27T23:21:56.843Z,5.14
2023-03-27T23:24:24.446Z,5.08
2023-03-27T23:26:52.133Z,5.12
2023-03-27T23:29:19.907Z,5.17
2023-03-27T23:31:47.742Z,5.10
2023-03-27T23:34:15.365Z,5.05
2023-03-27T23:36:44.345Z,5.09
2023-03-27T23:39:13.304Z,5.06
2023-03-27T23:41:40.993Z,5.13
2023-03-27T23:44:08.582Z,5.14
2023-03-27T23:46:36.515Z,5.13
2023-03-27T23:49:04.164Z,5.18
2023-03-27T23:51:31.790Z,5.12
2023-03-27T23:53:59.400Z,5.07
2023-03-27T23:56:28.360Z,5.15
2023-03-27T23:58:55.991Z,5.15
